sensor_id;sensor_type;location;lat;lon;timestamp;pressure;altitude;pressure_sealevel;temperature;humidity
50356;BME280;36264;51.296;-0.602;2022-09-06T00:01:20;101083.16;;;15.45;100.00
50356;BME280;36264;51.296;-0.602;2022-09-06T00:03:47;101077.84;;;15.47;100.00
50356;BME280;36264;51.296;-0.602;2022-09-06T00:06:15;101081.16;;;15.50;100.00
50356;BME280;36264;51.296;-0.602;2022-09-06T00:08:42;101082.94;;;15.50;100.00
50356;BME280;36264;51.296;-0.602;2022-09-06T00:11:08;101085.41;;;15.53;100.00
50356;BME280;36264;51.296;-0.602;2022-09-06T00:13:34;101087.97;;;15.54;100.00
50356;BME280;36264;51.296;-0.602;2022-09-06T00:16:14;101094.81;;;15.57;100.00
50356;BME280;36264;51.296;-0.602;2022-09-06T00:18:41;101094.81;;;15.57;100.00
50356;BME280;36264;51.296;-0.602;2022-09-06T00:21:19;101095.53;;;15.61;100.00
50356;BME280;36264;51.296;-0.602;2022-09-06T00:23:45;101086.81;;;15.60;100.00
50356;BME280;36264;51.296;-0.602;2022-09-06T00:26:10;101085.97;;;15.60;100.00
50356;BME280;36264;51.296;-0.602;2022-09-06T00:28:37;101081.66;;;15.58;100.00
50356;BME280;36264;51.296;-0.602;2022-09-06T00:31:14;101081.72;;;15.57;100.00
50356;BME280;36264;51.296;-0.602;2022-09-06T00:33:40;101077.34;;;15.57;100.00
50356;BME280;36264;51.296;-0.602;2022-09-06T00:36:06;101074.88;;;15.54;100.00
50356;BME280;36264;51.296;-0.602;2022-09-06T00:38:32;101074.22;;;15.49;100.00
50356;BME280;36264;51.296;-0.602;2022-09-06T00:40:58;101081.38;;;15.46;100.00
50356;BME280;36264;51.296;-0.602;2022-09-06T00:43:24;101074.59;;;15.42;100.00
50356;BME280;36264;51.296;-0.602;2022-09-06T00:45:49;101069.50;;;15.38;100.00
50356;BME280;36264;51.296;-0.602;2022-09-06T00:48:16;101066.16;;;15.35;100.00
50356;BME280;36264;51.296;-0.602;2022-09-06T00:50:43;101062.91;;;15.30;100.00
50356;BME280;36264;51.296;-0.602;2022-09-06T00:53:10;101065.72;;;15.25;100.00
50356;BME280;36264;51.296;-0.602;2022-09-06T00:55:36;101073.72;;;15.22;100.00
50356;BME280;36264;51.296;-0.602;2022-09-06T00:58:01;101074.59;;;15.23;100.00
50356;BME280;36264;51.296;-0.602;2022-09-06T01:00:27;101065.03;;;15.21;100.00
50356;BME280;36264;51.296;-0.602;2022-09-06T01:02:52;101063.53;;;15.16;100.00
50356;BME280;36264;51.296;-0.602;2022-09-06T01:05:18;101066.22;;;15.14;100.00
50356;BME280;36264;51.296;-0.602;2022-09-06T01:08:14;101063.53;;;15.16;100.00
50356;BME280;36264;51.296;-0.602;2022-09-06T01:22:19;101053.19;;;15.13;100.00
50356;BME280;36264;51.296;-0.602;2022-09-06T01:30:24;101072.47;;;15.12;100.00
50356;BME280;36264;51.296;-0.602;2022-09-06T01:35:32;101072.03;;;15.02;100.00
50356;BME280;36264;51.296;-0.602;2022-09-06T01:37:59;101069.59;;;14.97;100.00
50356;BME280;36264;51.296;-0.602;2022-09-06T01:40:26;101075.63;;;14.99;100.00
50356;BME280;36264;51.296;-0.602;2022-09-06T01:42:53;101064.38;;;14.97;100.00
50356;BME280;36264;51.296;-0.602;2022-09-06T01:45:24;101065.41;;;14.93;100.00
50356;BME280;36264;51.296;-0.602;2022-09-06T01:48:11;101059.47;;;14.90;100.00
50356;BME280;36264;51.296;-0.602;2022-09-06T01:50:57;101056.06;;;14.88;100.00
50356;BME280;36264;51.296;-0.602;2022-09-06T01:53:35;101051.97;;;14.82;100.00
50356;BME280;36264;51.296;-0.602;2022-09-06T02:04:48;101056.94;;;14.88;100.00
50356;BME280;36264;51.296;-0.602;2022-09-06T02:07:20;101063.72;;;14.92;100.00
50356;BME280;36264;51.296;-0.602;2022-09-06T02:09:52;101058.47;;;14.92;100.00
50356;BME280;36264;51.296;-0.602;2022-09-06T02:12:20;101056.78;;;14.91;100.00
50356;BME280;36264;51.296;-0.602;2022-09-06T02:14:51;101048.28;;;14.86;100.00
50356;BME280;36264;51.296;-0.602;2022-09-06T02:17:25;101051.13;;;14.81;100.00
50356;BME280;36264;51.296;-0.602;2022-09-06T02:19:58;101051.41;;;14.75;100.00
50356;BME280;36264;51.296;-0.602;2022-09-06T02:22:29;101041.13;;;14.71;100.00
50356;BME280;36264;51.296;-0.602;2022-09-06T02:24:56;101040.63;;;14.62;100.00
50356;BME280;36264;51.296;-0.602;2022-09-06T02:27:22;101036.53;;;14.55;100.00
50356;BME280;36264;51.296;-0.602;2022-09-06T02:29:48;101037.50;;;14.53;100.00
50356;BME280;36264;51.296;-0.602;2022-09-06T02:32:24;101041.75;;;14.55;100.00
50356;BME280;36264;51.296;-0.602;2022-09-06T02:34:53;101030.53;;;14.53;100.00
50356;BME280;36264;51.296;-0.602;2022-09-06T02:37:19;101031.44;;;14.52;100.00
50356;BME280;36264;51.296;-0.602;2022-09-06T02:39:46;101020.97;;;14.52;100.00
50356;BME280;36264;51.296;-0.602;2022-09-06T02:42:14;101015.03;;;14.48;100.00
50356;BME280;36264;51.296;-0.602;2022-09-06T02:44:40;101013.47;;;14.44;100.00
50356;BME280;36264;51.296;-0.602;2022-09-06T02:47:05;101010.00;;;14.44;100.00
50356;BME280;36264;51.296;-0.602;2022-09-06T02:49:31;100993.44;;;14.45;100.00
50356;BME280;36264;51.296;-0.602;2022-09-06T02:51:56;100998.72;;;14.43;100.00
50356;BME280;36264;51.296;-0.602;2022-09-06T02:54:22;100995.22;;;14.43;100.00
50356;BME280;36264;51.296;-0.602;2022-09-06T02:56:48;100991.91;;;14.39;100.00
50356;BME280;36264;51.296;-0.602;2022-09-06T02:59:13;100991.34;;;14.32;100.00
50356;BME280;36264;51.296;-0.602;2022-09-06T03:01:40;101003.75;;;14.27;100.00
50356;BME280;36264;51.296;-0.602;2022-09-06T03:04:05;101019.44;;;14.27;100.00
50356;BME280;36264;51.296;-0.602;2022-09-06T03:06:31;101026.34;;;14.28;100.00
50356;BME280;36264;51.296;-0.602;2022-09-06T03:08:57;101028.03;;;14.29;100.00
50356;BME280;36264;51.296;-0.602;2022-09-06T03:11:24;101022.81;;;14.29;100.00
50356;BME280;36264;51.296;-0.602;2022-09-06T03:13:49;101026.34;;;14.28;100.00
50356;BME280;36264;51.296;-0.602;2022-09-06T03:16:15;101017.53;;;14.31;100.00
50356;BME280;36264;51.296;-0.602;2022-09-06T03:18:40;101022.75;;;14.31;100.00
50356;BME280;36264;51.296;-0.602;2022-09-06T03:21:06;101028.03;;;14.29;100.00
50356;BME280;36264;51.296;-0.602;2022-09-06T03:23:31;101019.56;;;14.24;100.00
50356;BME280;36264;51.296;-0.602;2022-09-06T03:25:58;101015.53;;;14.16;100.00
50356;BME280;36264;51.296;-0.602;2022-09-06T03:28:23;101014.06;;;14.10;100.00
50356;BME280;36264;51.296;-0.602;2022-09-06T03:30:50;101008.03;;;14.08;100.00
50356;BME280;36264;51.296;-0.602;2022-09-06T03:33:16;101007.91;;;14.11;100.00
50356;BME280;36264;51.296;-0.602;2022-09-06T03:35:53;100998.38;;;14.10;100.00
50356;BME280;36264;51.296;-0.602;2022-09-06T03:38:19;101006.13;;;14.11;100.00
50356;BME280;36264;51.296;-0.602;2022-09-06T03:40:45;101007.00;;;14.12;100.00
50356;BME280;36264;51.296;-0.602;2022-09-06T03:43:11;101009.53;;;14.13;100.00
50356;BME280;36264;51.296;-0.602;2022-09-06T03:45:36;101004.25;;;14.15;100.00
50356;BME280;36264;51.296;-0.602;2022-09-06T03:48:02;100997.97;;;14.19;100.00
50356;BME280;36264;51.296;-0.602;2022-09-06T03:50:27;100989.16;;;14.22;100.00
50356;BME280;36264;51.296;-0.602;2022-09-06T03:52:52;100986.38;;;14.26;100.00
50356;BME280;36264;51.296;-0.602;2022-09-06T03:55:18;100989.88;;;14.25;100.00
50356;BME280;36264;51.296;-0.602;2022-09-06T03:57:43;100983.03;;;14.23;100.00
50356;BME280;36264;51.296;-0.602;2022-09-06T04:00:09;100979.69;;;14.19;100.00
50356;BME280;36264;51.296;-0.602;2022-09-06T04:02:34;100968.53;;;14.16;100.00
50356;BME280;36264;51.296;-0.602;2022-09-06T04:05:00;100967.63;;;14.17;100.00
50356;BME280;36264;51.296;-0.602;2022-09-06T04:07:25;100955.41;;;14.17;100.00
50356;BME280;36264;51.296;-0.602;2022-09-06T04:09:51;100956.38;;;14.14;100.00
50356;BME280;36264;51.296;-0.602;2022-09-06T04:12:16;100953.97;;;14.10;100.00
50356;BME280;36264;51.296;-0.602;2022-09-06T04:14:41;100948.75;;;14.10;100.00
50356;BME280;36264;51.296;-0.602;2022-09-06T04:17:07;100953.25;;;14.06;100.00
50356;BME280;36264;51.296;-0.602;2022-09-06T04:19:32;100960.25;;;14.06;100.00
50356;BME280;36264;51.296;-0.602;2022-09-06T04:21:58;100974.19;;;14.05;100.00
50356;BME280;36264;51.296;-0.602;2022-09-06T04:24:24;100979.50;;;14.03;100.00
50356;BME280;36264;51.296;-0.602;2022-09-06T04:26:49;100979.63;;;14.00;100.00
50356;BME280;36264;51.296;-0.602;2022-09-06T04:29:14;100981.63;;;13.93;100.00
50356;BME280;36264;51.296;-0.602;2022-09-06T04:31:40;100980.97;;;13.88;100.00
50356;BME280;36264;51.296;-0.602;2022-09-06T04:34:05;100975.13;;;13.83;100.00
50356;BME280;36264;51.296;-0.602;2022-09-06T04:36:30;100968.38;;;13.77;100.00
50356;BME280;36264;51.296;-0.602;2022-09-06T04:38:56;100967.53;;;13.77;100.00
50356;BME280;36264;51.296;-0.602;2022-09-06T04:41:21;100965.94;;;13.73;100.00
50356;BME280;36264;51.296;-0.602;2022-09-06T04:43:47;100970.38;;;13.71;100.00
50356;BME280;36264;51.296;-0.602;2022-09-06T04:46:29;100972.09;;;13.72;100.00
50356;BME280;36264;51.296;-0.602;2022-09-06T04:48:56;100973.81;;;13.71;100.00
50356;BME280;36264;51.296;-0.602;2022-09-06T04:51:22;100967.59;;;13.75;100.00
50356;BME280;36264;51.296;-0.602;2022-09-06T04:53:48;100960.59;;;13.76;100.00
50356;BME280;36264;51.296;-0.602;2022-09-06T04:56:19;100961.38;;;13.78;100.00
50356;BME280;36264;51.296;-0.602;2022-09-06T04:58:46;100966.53;;;13.80;100.00
50356;BME280;36264;51.296;-0.602;2022-09-06T05:01:12;100950.81;;;13.81;100.00
50356;BME280;36264;51.296;-0.602;2022-09-06T05:03:37;100963.59;;;13.87;100.00
50356;BME280;36264;51.296;-0.602;2022-09-06T05:06:10;100970.34;;;13.93;100.00
50356;BME280;36264;51.296;-0.602;2022-09-06T05:08:40;100970.28;;;13.94;100.00
50356;BME280;36264;51.296;-0.602;2022-09-06T05:11:06;100973.75;;;13.95;100.00
50356;BME280;36264;51.296;-0.602;2022-09-06T05:13:33;100964.00;;;13.99;100.00
50356;BME280;36264;51.296;-0.602;2022-09-06T05:16:02;100953.56;;;13.99;100.00
50356;BME280;36264;51.296;-0.602;2022-09-06T05:18:29;100956.03;;;14.02;100.00
50356;BME280;36264;51.296;-0.602;2022-09-06T05:20:54;100962.00;;;14.05;100.00
50356;BME280;36264;51.296;-0.602;2022-09-06T05:23:20;100962.72;;;14.09;100.00
50356;BME280;36264;51.296;-0.602;2022-09-06T05:25:47;100974.78;;;14.11;100.00
50356;BME280;36264;51.296;-0.602;2022-09-06T05:28:13;100982.50;;;14.14;100.00
50356;BME280;36264;51.296;-0.602;2022-09-06T05:30:38;100987.78;;;14.13;100.00
50356;BME280;36264;51.296;-0.602;2022-09-06T05:33:05;100992.88;;;14.16;100.00
50356;BME280;36264;51.296;-0.602;2022-09-06T05:35:30;101009.41;;;14.17;100.00
50356;BME280;36264;51.296;-0.602;2022-09-06T05:37:56;101009.22;;;14.21;100.00
50356;BME280;36264;51.296;-0.602;2022-09-06T05:40:21;101012.56;;;14.25;100.00
50356;BME280;36264;51.296;-0.602;2022-09-06T05:42:46;101015.81;;;14.30;100.00
50356;BME280;36264;51.296;-0.602;2022-09-06T05:45:12;101006.88;;;14.36;100.00
50356;BME280;36264;51.296;-0.602;2022-09-06T05:47:37;101010.22;;;14.39;100.00
50356;BME280;36264;51.296;-0.602;2022-09-06T05:50:03;100994.31;;;14.44;100.00
50356;BME280;36264;51.296;-0.602;2022-09-06T05:52:28;100996.63;;;14.52;100.00
50356;BME280;36264;51.296;-0.602;2022-09-06T05:54:54;100994.66;;;14.57;100.00
50356;BME280;36264;51.296;-0.602;2022-09-06T05:57:19;101000.47;;;14.63;100.00
50356;BME280;36264;51.296;-0.602;2022-09-06T05:59:45;100994.97;;;14.70;100.00
50356;BME280;36264;51.296;-0.602;2022-09-06T06:02:10;101006.00;;;14.76;100.00
50356;BME280;36264;51.296;-0.602;2022-09-06T06:04:35;101001.44;;;14.81;100.00
50356;BME280;36264;51.296;-0.602;2022-09-06T06:07:01;101000.16;;;14.90;100.00
50356;BME280;36264;51.296;-0.602;2022-09-06T06:09:26;100987.72;;;14.95;100.00
50356;BME280;36264;51.296;-0.602;2022-09-06T06:11:52;100985.69;;;15.02;100.00
50356;BME280;36264;51.296;-0.602;2022-09-06T06:14:17;100972.38;;;15.07;100.00
50356;BME280;36264;51.296;-0.602;2022-09-06T06:16:42;100980.16;;;15.08;100.00
50356;BME280;36264;51.296;-0.602;2022-09-06T06:19:08;100986.81;;;15.15;100.00
50356;BME280;36264;51.296;-0.602;2022-09-06T06:21:33;100980.59;;;15.18;100.00
50356;BME280;36264;51.296;-0.602;2022-09-06T06:24:01;100983.84;;;15.23;100.00
50356;BME280;36264;51.296;-0.602;2022-09-06T06:26:28;100988.00;;;15.27;100.00
50356;BME280;36264;51.296;-0.602;2022-09-06T06:28:54;100983.44;;;15.32;100.00
50356;BME280;36264;51.296;-0.602;2022-09-06T06:31:22;100995.28;;;15.39;100.00
50356;BME280;36264;51.296;-0.602;2022-09-06T06:33:48;100999.47;;;15.44;100.00
50356;BME280;36264;51.296;-0.602;2022-09-06T06:38:43;100987.75;;;15.51;100.00
50356;BME280;36264;51.296;-0.602;2022-09-06T06:41:12;100981.69;;;15.50;100.00
50356;BME280;36264;51.296;-0.602;2022-09-06T06:43:37;100981.75;;;15.49;100.00
50356;BME280;36264;51.296;-0.602;2022-09-06T06:46:04;100991.31;;;15.50;100.00
50356;BME280;36264;51.296;-0.602;2022-09-06T06:48:30;101002.56;;;15.52;100.00
50356;BME280;36264;51.296;-0.602;2022-09-06T06:50:56;101002.63;;;15.50;100.00
50356;BME280;36264;51.296;-0.602;2022-09-06T06:53:21;100999.03;;;15.53;100.00
50356;BME280;36264;51.296;-0.602;2022-09-06T06:55:47;100987.06;;;15.47;100.00
50356;BME280;36264;51.296;-0.602;2022-09-06T06:58:14;100996.28;;;15.56;100.00
50356;BME280;36264;51.296;-0.602;2022-09-06T07:00:39;100997.19;;;15.55;100.00
50356;BME280;36264;51.296;-0.602;2022-09-06T07:03:06;101006.75;;;15.56;100.00
50356;BME280;36264;51.296;-0.602;2022-09-06T07:05:32;101007.66;;;15.55;100.00
50356;BME280;36264;51.296;-0.602;2022-09-06T07:07:57;101022.22;;;15.61;100.00
50356;BME280;36264;51.296;-0.602;2022-09-06T07:10:23;101020.38;;;15.63;100.00
50356;BME280;36264;51.296;-0.602;2022-09-06T07:12:49;101025.31;;;15.69;100.00
50356;BME280;36264;51.296;-0.602;2022-09-06T07:15:15;101026.78;;;15.74;100.00
50356;BME280;36264;51.296;-0.602;2022-09-06T07:17:41;101026.44;;;15.82;100.00
50356;BME280;36264;51.296;-0.602;2022-09-06T07:20:07;101025.16;;;15.91;100.00
50356;BME280;36264;51.296;-0.602;2022-09-06T07:22:33;101025.47;;;16.02;100.00
50356;BME280;36264;51.296;-0.602;2022-09-06T07:24:59;101027.44;;;16.16;100.00
50356;BME280;36264;51.296;-0.602;2022-09-06T07:27:24;101029.47;;;16.27;100.00
50356;BME280;36264;51.296;-0.602;2022-09-06T07:29:49;101017.69;;;16.36;100.00
50356;BME280;36264;51.296;-0.602;2022-09-06T07:32:14;101008.50;;;16.44;100.00
50356;BME280;36264;51.296;-0.602;2022-09-06T07:34:40;101015.13;;;16.52;100.00
50356;BME280;36264;51.296;-0.602;2022-09-06T07:37:05;101006.00;;;16.59;100.00
50356;BME280;36264;51.296;-0.602;2022-09-06T07:39:31;101008.41;;;16.63;100.00
50356;BME280;36264;51.296;-0.602;2022-09-06T07:42:01;101005.63;;;16.66;100.00
50356;BME280;36264;51.296;-0.602;2022-09-06T07:44:26;100995.13;;;16.66;100.00
50356;BME280;36264;51.296;-0.602;2022-09-06T07:46:53;100996.75;;;16.69;100.00
50356;BME280;36264;51.296;-0.602;2022-09-06T07:49:19;100991.25;;;16.74;100.00
50356;BME280;36264;51.296;-0.602;2022-09-06T07:51:44;100991.94;;;16.77;100.00
50356;BME280;36264;51.296;-0.602;2022-09-06T07:54:09;100986.44;;;16.82;100.00
50356;BME280;36264;51.296;-0.602;2022-09-06T07:56:35;100980.28;;;16.83;100.00
50356;BME280;36264;51.296;-0.602;2022-09-06T07:59:03;100972.34;;;16.84;100.00
50356;BME280;36264;51.296;-0.602;2022-09-06T08:01:34;100974.75;;;16.89;100.00
50356;BME280;36264;51.296;-0.602;2022-09-06T08:04:01;100979.22;;;16.87;100.00
50356;BME280;36264;51.296;-0.602;2022-09-06T08:06:28;100974.59;;;16.92;100.00
50356;BME280;36264;51.296;-0.602;2022-09-06T08:08:54;100974.13;;;17.00;100.00
50356;BME280;36264;51.296;-0.602;2022-09-06T08:11:20;100972.88;;;17.07;100.00
50356;BME280;36264;51.296;-0.602;2022-09-06T08:13:52;100976.19;;;17.11;100.00
50356;BME280;36264;51.296;-0.602;2022-09-06T08:16:22;100981.44;;;17.11;100.00
50356;BME280;36264;51.296;-0.602;2022-09-06T08:18:53;100992.69;;;17.13;100.00
50356;BME280;36264;51.296;-0.602;2022-09-06T08:21:20;101008.44;;;17.13;100.00
50356;BME280;36264;51.296;-0.602;2022-09-06T08:23:49;101027.66;;;17.13;100.00
50356;BME280;36264;51.296;-0.602;2022-09-06T08:26:16;101018.94;;;17.13;100.00
50356;BME280;36264;51.296;-0.602;2022-09-06T08:28:43;101026.56;;;17.17;100.00
50356;BME280;36264;51.296;-0.602;2022-09-06T08:31:10;101018.50;;;17.20;100.00
50356;BME280;36264;51.296;-0.602;2022-09-06T08:33:36;101010.47;;;17.24;100.00
50356;BME280;36264;51.296;-0.602;2022-09-06T08:36:03;101011.34;;;17.24;100.00
50356;BME280;36264;51.296;-0.602;2022-09-06T08:38:28;101005.13;;;17.25;100.00
50356;BME280;36264;51.296;-0.602;2022-09-06T08:43:32;101008.97;;;17.19;100.00
50356;BME280;36264;51.296;-0.602;2022-09-06T08:45:58;100996.69;;;17.20;100.00
50356;BME280;36264;51.296;-0.602;2022-09-06T08:48:28;100987.63;;;17.26;100.00
50356;BME280;36264;51.296;-0.602;2022-09-06T08:51:11;100987.28;;;17.32;100.00
50356;BME280;36264;51.296;-0.602;2022-09-06T08:53:43;100988.06;;;17.34;100.00
50356;BME280;36264;51.296;-0.602;2022-09-06T08:56:22;100980.84;;;17.37;100.00
50356;BME280;36264;51.296;-0.602;2022-09-06T08:59:05;100971.00;;;17.41;100.00
50356;BME280;36264;51.296;-0.602;2022-09-06T09:04:14;100981.34;;;17.44;100.00
50356;BME280;36264;51.296;-0.602;2022-09-06T09:06:45;100981.34;;;17.44;100.00
50356;BME280;36264;51.296;-0.602;2022-09-06T09:09:15;100999.72;;;17.44;100.00
50356;BME280;36264;51.296;-0.602;2022-09-06T09:11:42;101001.59;;;17.42;100.00
50356;BME280;36264;51.296;-0.602;2022-09-06T09:14:29;100995.59;;;17.40;100.00
50356;BME280;36264;51.296;-0.602;2022-09-06T09:17:04;100990.34;;;17.40;100.00
50356;BME280;36264;51.296;-0.602;2022-09-06T09:19:32;100992.00;;;17.41;100.00
50356;BME280;36264;51.296;-0.602;2022-09-06T09:22:00;100998.03;;;17.43;100.00
50356;BME280;36264;51.296;-0.602;2022-09-06T09:24:26;101002.34;;;17.44;100.00
50356;BME280;36264;51.296;-0.602;2022-09-06T09:27:01;100992.19;;;17.38;100.00
50356;BME280;36264;51.296;-0.602;2022-09-06T09:29:28;100992.34;;;17.35;100.00
50356;BME280;36264;51.296;-0.602;2022-09-06T09:31:54;100996.09;;;17.31;100.00
50356;BME280;36264;51.296;-0.602;2022-09-06T09:34:31;100996.44;;;17.25;100.00
50356;BME280;36264;51.296;-0.602;2022-09-06T09:37:16;101002.59;;;17.24;100.00
50356;BME280;36264;51.296;-0.602;2022-09-06T09:39:44;101013.88;;;17.26;100.00
50356;BME280;36264;51.296;-0.602;2022-09-06T09:42:21;101007.44;;;17.31;100.00
50356;BME280;36264;51.296;-0.602;2022-09-06T09:44:48;101015.22;;;17.33;100.00
50356;BME280;36264;51.296;-0.602;2022-09-06T09:47:24;101010.56;;;17.38;100.00
50356;BME280;36264;51.296;-0.602;2022-09-06T09:49:52;101004.88;;;17.46;100.00
50356;BME280;36264;51.296;-0.602;2022-09-06T09:52:24;101005.56;;;17.49;100.00
50356;BME280;36264;51.296;-0.602;2022-09-06T09:54:50;100995.75;;;17.53;100.00
50356;BME280;36264;51.296;-0.602;2022-09-06T09:57:20;100994.72;;;17.55;100.00
50356;BME280;36264;51.296;-0.602;2022-09-06T09:59:51;100996.06;;;17.63;100.00
50356;BME280;36264;51.296;-0.602;2022-09-06T10:02:23;100994.03;;;17.68;100.00
50356;BME280;36264;51.296;-0.602;2022-09-06T10:04:51;100985.97;;;17.71;100.00
50356;BME280;36264;51.296;-0.602;2022-09-06T10:07:22;100986.53;;;17.76;100.00
50356;BME280;36264;51.296;-0.602;2022-09-06T10:10:03;100986.97;;;17.84;100.00
50356;BME280;36264;51.296;-0.602;2022-09-06T10:12:35;100998.41;;;17.83;100.00
50356;BME280;36264;51.296;-0.602;2022-09-06T10:15:05;100997.06;;;17.76;100.00
50356;BME280;36264;51.296;-0.602;2022-09-06T10:20:08;101007.50;;;17.62;100.00
50356;BME280;36264;51.296;-0.602;2022-09-06T10:28:35;100999.03;;;17.56;100.00
50356;BME280;36264;51.296;-0.602;2022-09-06T10:36:36;100993.66;;;17.90;100.00
50356;BME280;36264;51.296;-0.602;2022-09-06T10:41:52;100985.16;;;18.01;100.00
50356;BME280;36264;51.296;-0.602;2022-09-06T10:44:57;100981.31;;;18.06;100.00
50356;BME280;36264;51.296;-0.602;2022-09-06T10:47:30;100984.38;;;18.15;100.00
50356;BME280;36264;51.296;-0.602;2022-09-06T10:49:59;100966.34;;;18.23;100.00
50356;BME280;36264;51.296;-0.602;2022-09-06T10:52:46;100967.66;;;18.30;100.00
50356;BME280;36264;51.296;-0.602;2022-09-06T10:55:15;100963.81;;;18.36;100.00
50356;BME280;36264;51.296;-0.602;2022-09-06T10:57:52;100951.22;;;18.41;100.00
50356;BME280;36264;51.296;-0.602;2022-09-06T11:00:20;100949.38;;;18.43;100.00
50356;BME280;36264;51.296;-0.602;2022-09-06T11:03:34;100931.16;;;18.54;99.64
50356;BME280;36264;51.296;-0.602;2022-09-06T11:06:06;100925.50;;;18.60;100.00
50356;BME280;36264;51.296;-0.602;2022-09-06T11:08:42;100930.28;;;18.68;100.00
50356;BME280;36264;51.296;-0.602;2022-09-06T11:11:15;100920.13;;;18.76;100.00
50356;BME280;36264;51.296;-0.602;2022-09-06T11:13:42;100933.75;;;18.83;100.00
50356;BME280;36264;51.296;-0.602;2022-09-06T11:16:21;100922.09;;;18.87;100.00
50356;BME280;36264;51.296;-0.602;2022-09-06T11:18:54;100920.34;;;18.88;100.00
50356;BME280;36264;51.296;-0.602;2022-09-06T11:26:35;100936.94;;;19.03;100.00
50356;BME280;36264;51.296;-0.602;2022-09-06T11:29:20;100946.34;;;19.07;100.00
50356;BME280;36264;51.296;-0.602;2022-09-06T11:31:58;100942.56;;;19.11;100.00
50356;BME280;36264;51.296;-0.602;2022-09-06T11:34:34;100938.88;;;19.13;100.00
50356;BME280;36264;51.296;-0.602;2022-09-06T11:37:02;100932.16;;;19.22;100.00
50356;BME280;36264;51.296;-0.602;2022-09-06T11:39:37;100930.94;;;19.28;97.54
50356;BME280;36264;51.296;-0.602;2022-09-06T11:42:07;100922.53;;;19.35;98.57
50356;BME280;36264;51.296;-0.602;2022-09-06T11:55:30;100934.41;;;19.55;88.69
50356;BME280;36264;51.296;-0.602;2022-09-06T11:57:58;100936.69;;;19.47;94.90
50356;BME280;36264;51.296;-0.602;2022-09-06T12:00:24;100934.56;;;19.40;95.93
50356;BME280;36264;51.296;-0.602;2022-09-06T12:02:51;100934.31;;;19.30;95.39
50356;BME280;36264;51.296;-0.602;2022-09-06T12:05:30;100933.88;;;19.23;96.04
50356;BME280;36264;51.296;-0.602;2022-09-06T12:08:24;100925.00;;;19.11;96.80
50356;BME280;36264;51.296;-0.602;2022-09-06T12:10:59;100925.66;;;19.00;98.79
50356;BME280;36264;51.296;-0.602;2022-09-06T12:13:47;100926.53;;;18.87;98.73
50356;BME280;36264;51.296;-0.602;2022-09-06T12:16:16;100936.13;;;18.73;99.49
50356;BME280;36264;51.296;-0.602;2022-09-06T12:21:08;100927.56;;;18.55;100.00
50356;BME280;36264;51.296;-0.602;2022-09-06T12:26:06;100924.28;;;18.37;100.00
50356;BME280;36264;51.296;-0.602;2022-09-06T12:28:48;100931.81;;;18.29;100.00
50356;BME280;36264;51.296;-0.602;2022-09-06T12:31:22;100935.63;;;18.23;100.00
50356;BME280;36264;51.296;-0.602;2022-09-06T12:33:48;100927.47;;;18.14;100.00
50356;BME280;36264;51.296;-0.602;2022-09-06T12:36:20;100932.81;;;18.12;100.00
50356;BME280;36264;51.296;-0.602;2022-09-06T12:38:56;100930.63;;;18.04;100.00
50356;BME280;36264;51.296;-0.602;2022-09-06T12:41:23;100917.66;;;18.01;100.00
50356;BME280;36264;51.296;-0.602;2022-09-06T12:43:50;100912.59;;;17.98;100.00
50356;BME280;36264;51.296;-0.602;2022-09-06T12:46:16;100898.72;;;17.96;100.00
50356;BME280;36264;51.296;-0.602;2022-09-06T12:48:41;100906.31;;;18.01;100.00
50356;BME280;36264;51.296;-0.602;2022-09-06T12:51:09;100903.97;;;18.10;100.00
50356;BME280;36264;51.296;-0.602;2022-09-06T12:53:56;100897.53;;;18.16;100.00
50356;BME280;36264;51.296;-0.602;2022-09-06T12:56:24;100905.97;;;18.21;100.00
50356;BME280;36264;51.296;-0.602;2022-09-06T12:58:49;100913.84;;;18.21;100.00
50356;BME280;36264;51.296;-0.602;2022-09-06T13:01:33;100906.63;;;18.25;100.00
50356;BME280;36264;51.296;-0.602;2022-09-06T13:04:09;100905.78;;;18.24;100.00
50356;BME280;36264;51.296;-0.602;2022-09-06T13:06:41;100912.06;;;18.22;100.00
50356;BME280;36264;51.296;-0.602;2022-09-06T13:09:12;100926.91;;;18.23;100.00
50356;BME280;36264;51.296;-0.602;2022-09-06T13:11:43;100905.03;;;18.22;100.00
50356;BME280;36264;51.296;-0.602;2022-09-06T13:14:11;100902.09;;;18.27;100.00
50356;BME280;36264;51.296;-0.602;2022-09-06T13:16:42;100900.44;;;18.26;100.00
50356;BME280;36264;51.296;-0.602;2022-09-06T13:19:34;100911.03;;;18.24;100.00
50356;BME280;36264;51.296;-0.602;2022-09-06T13:21:59;100890.94;;;18.23;100.00
50356;BME280;36264;51.296;-0.602;2022-09-06T13:24:41;100909.34;;;18.23;100.00
50356;BME280;36264;51.296;-0.602;2022-09-06T13:29:59;100903.59;;;18.02;100.00
50356;BME280;36264;51.296;-0.602;2022-09-06T13:32:28;100897.28;;;17.90;100.00
50356;BME280;36264;51.296;-0.602;2022-09-06T13:34:54;100901.25;;;17.67;100.00
50356;BME280;36264;51.296;-0.602;2022-09-06T13:37:23;100893.50;;;17.50;100.00
50356;BME280;36264;51.296;-0.602;2022-09-06T13:39:49;100898.00;;;17.32;100.00
50356;BME280;36264;51.296;-0.602;2022-09-06T13:42:29;100898.91;;;17.16;100.00
50356;BME280;36264;51.296;-0.602;2022-09-06T13:45:12;100888.59;;;16.97;100.00
50356;BME280;36264;51.296;-0.602;2022-09-06T13:47:39;100904.13;;;16.84;100.00
50356;BME280;36264;51.296;-0.602;2022-09-06T13:50:04;100890.75;;;16.73;100.00
50356;BME280;36264;51.296;-0.602;2022-09-06T13:52:30;100888.81;;;16.61;100.00
50356;BME280;36264;51.296;-0.602;2022-09-06T13:54:55;100871.53;;;16.57;100.00
50356;BME280;36264;51.296;-0.602;2022-09-06T13:57:21;100860.13;;;16.74;100.00